createdAt,value
2023-03-03T00:02:37.957Z,3.3
2023-03-03T00:08:31.077Z,3.3
2023-03-03T00:14:23.925Z,3.3
2023-03-03T00:20:17.491Z,3.4
2023-03-03T00:26:10.519Z,3.4
2023-03-03T00:31:32.170Z,3.4
2023-03-03T00:37:08.909Z,3.4
2023-03-03T00:43:01.870Z,3.4
2023-03-03T00:48:54.814Z,3.4
2023-03-03T00:54:48.695Z,3.4
2023-03-03T01:00:10.955Z,3.4
2023-03-03T01:06:04.318Z,3.4
2023-03-03T01:11:41.459Z,3.4
2023-03-03T01:17:19.831Z,3.4
2023-03-03T01:22:57.487Z,3.4
2023-03-03T01:28:18.833Z,3.3
2023-03-03T01:33:41.395Z,3.3
2023-03-03T01:39:18.073Z,3.3
2023-03-03T01:44:54.956Z,3.3
2023-03-03T01:50:16.539Z,3.3
2023-03-03T01:55:37.857Z,3.3
2023-03-03T02:00:58.683Z,3.3
2023-03-03T02:06:21.312Z,3.3
2023-03-03T02:11:43.479Z,3.3
2023-03-03T02:17:04.665Z,3.3
2023-03-03T02:22:11.088Z,3.2
2023-03-03T02:27:16.853Z,3.2
2023-03-03T02:32:38.102Z,3.1
2023-03-03T02:38:15.977Z,3.1
2023-03-03T02:43:52.728Z,3.1
2023-03-03T02:49:45.595Z,3.1
2023-03-03T02:55:22.867Z,3.1
2023-03-03T03:01:00.136Z,3.1
2023-03-03T03:06:36.764Z,3.2
2023-03-03T03:11:58.513Z,3.2
2023-03-03T03:17:35.550Z,3.2
2023-03-03T03:23:12.674Z,3.2
2023-03-03T03:28:50.638Z,3.2
2023-03-03T03:34:43.601Z,3.2
2023-03-03T03:40:19.628Z,3.1
2023-03-03T03:45:57.145Z,3.1
2023-03-03T03:51:48.985Z,3.1
2023-03-03T03:57:26.789Z,3.1
2023-03-03T04:03:04.974Z,3
2023-03-03T04:08:57.292Z,2.9
2023-03-03T04:14:49.883Z,2.9
2023-03-03T04:20:31.406Z,2.9
2023-03-03T04:26:24.113Z,2.9
2023-03-03T04:32:04.271Z,2.9
2023-03-03T04:37:54.625Z,2.8
2023-03-03T04:43:49.279Z,2.8
2023-03-03T04:49:44.744Z,2.8
2023-03-03T04:55:37.662Z,2.8
2023-03-03T05:01:14.495Z,2.8
2023-03-03T05:06:52.721Z,2.8
2023-03-03T05:12:46.506Z,2.8
2023-03-03T05:18:39.705Z,2.8
2023-03-03T05:24:32.453Z,2.8
2023-03-03T05:30:25.704Z,2.8
2023-03-03T05:36:19.624Z,2.9
2023-03-03T05:41:57.276Z,2.9
2023-03-03T05:47:50.698Z,3
2023-03-03T05:53:43.259Z,3.1
2023-03-03T05:59:35.674Z,3.2
2023-03-03T06:05:30.004Z,3.3
2023-03-03T06:11:07.696Z,3.5
2023-03-03T06:17:02.468Z,3.6
2023-03-03T06:22:56.643Z,3.9
2023-03-03T06:28:49.433Z,4.3
2023-03-03T06:34:27.057Z,4.4
2023-03-03T06:40:20.944Z,4.6
2023-03-03T06:46:14.491Z,4.9
2023-03-03T06:51:51.320Z,5.1
2023-03-03T06:57:44.607Z,5.3
2023-03-03T07:03:23.522Z,5.5
2023-03-03T07:09:15.743Z,5.7
2023-03-03T07:15:11.603Z,5.8
2023-03-03T07:21:05.642Z,6
2023-03-03T07:26:58.844Z,6.3
2023-03-03T07:32:36.504Z,6.4
2023-03-03T07:38:30.434Z,6.6
2023-03-03T07:44:26.357Z,6.8
2023-03-03T07:50:19.816Z,7
2023-03-03T07:56:12.901Z,7.2
2023-03-03T08:02:05.163Z,7.3
2023-03-03T08:07:44.704Z,7.6
2023-03-03T08:13:37.929Z,7.8
2023-03-03T08:19:30.799Z,7.9
2023-03-03T08:25:24.022Z,8
2023-03-03T08:31:41.009Z,8.1
2023-03-03T08:37:36.198Z,8.4
2023-03-03T08:43:29.852Z,8.6
2023-03-03T08:49:23.626Z,8.8
2023-03-03T08:55:16.769Z,8.9
2023-03-03T09:01:24.712Z,9.1
2023-03-03T09:07:18.710Z,9.4
2023-03-03T09:13:10.554Z,10
2023-03-03T09:19:04.216Z,10.7
2023-03-03T09:24:58.036Z,11.3
2023-03-03T09:30:50.460Z,11.4
2023-03-03T09:36:44.454Z,12
2023-03-03T09:42:37.209Z,12.3
2023-03-03T09:48:17.945Z,12.4
2023-03-03T09:54:16.741Z,12.5
2023-03-03T10:00:27.992Z,12.7
2023-03-03T10:06:25.940Z,13.1
2023-03-03T10:12:19.920Z,13.6
2023-03-03T10:18:14.083Z,14.2
2023-03-03T10:24:18.608Z,14.8
2023-03-03T10:30:38.880Z,15.2
2023-03-03T10:37:04.024Z,15.5
2023-03-03T10:42:57.519Z,15.6
2023-03-03T10:49:08.084Z,15.6
2023-03-03T10:55:01.263Z,15.5
2023-03-03T11:01:07.836Z,15.3
2023-03-03T11:07:05.836Z,15.2
2023-03-03T11:12:44.725Z,14.9
2023-03-03T11:18:38.679Z,14.6
2023-03-03T11:24:31.962Z,14.5
2023-03-03T11:30:25.084Z,14.6
2023-03-03T11:36:19.677Z,14.8
2023-03-03T11:41:57.947Z,15.1
2023-03-03T11:48:06.758Z,15.1
2023-03-03T11:54:00.159Z,15.2
2023-03-03T11:59:55.297Z,15.3
2023-03-03T12:05:50.990Z,15.2
2023-03-03T12:11:52.195Z,14.8
2023-03-03T12:17:46.365Z,14.4
2023-03-03T12:23:39.365Z,14.1
2023-03-03T12:29:32.890Z,13.8
2023-03-03T12:35:27.681Z,13.4
2023-03-03T12:41:34.909Z,13.1
2023-03-03T12:47:27.914Z,12.7
2023-03-03T12:53:33.410Z,12.4
2023-03-03T12:59:26.421Z,12.1
2023-03-03T13:05:24.755Z,11.6
2023-03-03T13:11:18.266Z,11.3
2023-03-03T13:17:36.942Z,11.1
2023-03-03T13:23:29.986Z,11.1
2023-03-03T13:29:24.002Z,11.6
2023-03-03T13:35:18.486Z,13.4
2023-03-03T13:40:56.301Z,15
2023-03-03T13:46:49.441Z,15.7
2023-03-03T13:52:42.400Z,16
2023-03-03T13:58:35.145Z,16.3
2023-03-03T14:04:29.816Z,16.3
2023-03-03T14:10:23.147Z,15.9
2023-03-03T14:16:16.523Z,15.4
2023-03-03T14:22:10.745Z,14.9
2023-03-03T14:28:03.113Z,14.3
2023-03-03T14:34:12.606Z,13.7
2023-03-03T14:40:06.313Z,13.3
2023-03-03T14:46:03.582Z,12.9
2023-03-03T14:51:57.667Z,12.4
2023-03-03T14:57:52.397Z,12
2023-03-03T15:03:32.034Z,11.7
2023-03-03T15:09:25.869Z,11.5
2023-03-03T15:15:04.828Z,11.2
2023-03-03T15:20:42.140Z,10.9
2023-03-03T15:26:33.508Z,10.5
2023-03-03T15:32:11.865Z,10.1
2023-03-03T15:37:52.009Z,9.8
2023-03-03T15:43:27.988Z,9.4
2023-03-03T15:49:07.617Z,9.1
2023-03-03T15:54:54.714Z,8.8
2023-03-03T16:00:47.397Z,8.6
2023-03-03T16:06:25.274Z,8.3
2023-03-03T16:12:18.671Z,8
2023-03-03T16:18:12.262Z,7.8
2023-03-03T16:24:06.346Z,7.4
2023-03-03T16:29:45.657Z,7.3
2023-03-03T16:35:39.728Z,7
2023-03-03T16:41:33.432Z,6.8
2023-03-03T16:47:26.367Z,6.6
2023-03-03T16:53:02.331Z,6.5
2023-03-03T16:58:39.510Z,6.3
2023-03-03T17:04:33.052Z,6.2
2023-03-03T17:10:37.908Z,6.1
2023-03-03T17:16:00.089Z,5.9
2023-03-03T17:22:06.183Z,5.8
2023-03-03T17:27:59.856Z,5.8
2023-03-03T17:33:53.689Z,5.6
2023-03-03T17:39:32.188Z,5.6
2023-03-03T17:45:27.207Z,5.5
2023-03-03T17:51:19.892Z,5.4
2023-03-03T17:57:13.126Z,5.4
2023-03-03T18:03:05.870Z,5.4
2023-03-03T18:09:13.146Z,5.3
2023-03-03T18:14:50.826Z,5.3
2023-03-03T18:20:43.347Z,5.2
2023-03-03T18:26:39.200Z,5.2
2023-03-03T18:32:33.132Z,5.2
2023-03-03T18:38:25.480Z,5.1
2023-03-03T18:44:17.952Z,5.1
2023-03-03T18:50:11.339Z,5.1
2023-03-03T18:56:03.388Z,5.1
2023-03-03T19:01:24.593Z,5.1
2023-03-03T19:07:18.840Z,5.1
2023-03-03T19:12:56.084Z,5.1
2023-03-03T19:18:33.191Z,5.1
2023-03-03T19:24:28.923Z,5.1
2023-03-03T19:30:21.435Z,5.1
2023-03-03T19:36:15.533Z,5.1
2023-03-03T19:42:12.196Z,5.1
2023-03-03T19:48:05.369Z,5.1
2023-03-03T19:53:57.955Z,5.1
2023-03-03T19:59:50.431Z,5.1
2023-03-03T20:05:42.975Z,5
2023-03-03T20:11:37.085Z,5.1
2023-03-03T20:17:32.048Z,5.1
2023-03-03T20:23:23.112Z,5.1
2023-03-03T20:29:16.818Z,5.1
2023-03-03T20:35:10.150Z,5
2023-03-03T20:40:46.940Z,5
2023-03-03T20:46:40.248Z,5
2023-03-03T20:52:34.081Z,5
2023-03-03T20:58:25.379Z,4.9
2023-03-03T21:04:17.318Z,4.9
2023-03-03T21:09:39.246Z,4.9
2023-03-03T21:15:31.915Z,4.8
2023-03-03T21:21:27.756Z,4.8
2023-03-03T21:27:07.422Z,4.8
2023-03-03T21:33:02.124Z,4.9
2023-03-03T21:38:56.985Z,4.9
2023-03-03T21:44:50.514Z,4.9
2023-03-03T21:50:27.738Z,4.9
2023-03-03T21:56:05.252Z,4.9
2023-03-03T22:01:59.252Z,4.9
2023-03-03T22:07:53.236Z,4.9
2023-03-03T22:13:45.837Z,4.9
2023-03-03T22:19:39.076Z,4.9
2023-03-03T22:25:31.439Z,4.9
2023-03-03T22:31:25.066Z,4.9
2023-03-03T22:37:19.154Z,4.9
2023-03-03T22:43:11.761Z,4.9
2023-03-03T22:49:03.669Z,4.9
2023-03-03T22:54:55.890Z,4.9
2023-03-03T23:00:48.367Z,4.8
2023-03-03T23:06:41.983Z,4.8
2023-03-03T23:12:19.636Z,4.7
2023-03-03T23:18:11.744Z,4.6
2023-03-03T23:23:49.349Z,4.6
2023-03-03T23:29:41.350Z,4.6
2023-03-03T23:35:17.828Z,4.6
2023-03-03T23:41:09.942Z,4.6
2023-03-03T23:47:03.086Z,4.6
2023-03-03T23:52:55.826Z,4.6
2023-03-03T23:58:48.483Z,4.5
